createdAt,value
2018-09-27T00:01:57.510Z,64.94
2018-09-27T00:04:26.023Z,65.23
2018-09-27T00:06:54.547Z,64.66
2018-09-27T00:09:23.047Z,65.03
2018-09-27T00:11:51.515Z,65.14
2018-09-27T00:14:19.992Z,64.69
2018-09-27T00:16:48.487Z,64.74
2018-09-27T00:19:16.974Z,64.75
2018-09-27T00:21:45.443Z,64.45
2018-09-27T00:24:13.922Z,65.03
2018-09-27T00:26:42.385Z,64.74
2018-09-27T00:29:10.875Z,65.34
2018-09-27T00:31:39.346Z,65.22
2018-09-27T00:34:07.831Z,65.34
2018-09-27T00:36:36.306Z,64.71
2018-09-27T00:39:06.197Z,65.26
2018-09-27T00:41:34.694Z,64.79
2018-09-27T00:44:03.198Z,64.79
2018-09-27T00:46:31.657Z,64.60
2018-09-27T00:49:00.151Z,64.20
2018-09-27T00:51:28.614Z,64.72
2018-09-27T00:53:57.086Z,64.02
2018-09-27T00:56:25.553Z,64.50
2018-09-27T00:58:54.163Z,64.05
2018-09-27T01:01:22.685Z,64.48
2018-09-27T01:03:51.177Z,64.05
2018-09-27T01:06:19.662Z,64.54
2018-09-27T01:08:48.148Z,64.30
2018-09-27T01:11:16.628Z,63.84
2018-09-27T01:13:45.127Z,64.38
2018-09-27T01:16:13.618Z,63.89
2018-09-27T01:18:42.081Z,64.41
2018-09-27T01:21:10.584Z,64.41
2018-09-27T01:23:39.052Z,64.50
2018-09-27T01:26:07.514Z,64.46
2018-09-27T01:28:35.983Z,64.42
2018-09-27T01:31:04.449Z,64.57
2018-09-27T01:33:32.926Z,64.47
2018-09-27T01:36:01.408Z,64.24
2018-09-27T01:38:29.874Z,64.09
2018-09-27T01:40:58.456Z,64.15
2018-09-27T01:43:26.939Z,64.40
2018-09-27T01:45:55.418Z,64.59
2018-09-27T01:48:23.895Z,64.49
2018-09-27T01:50:52.431Z,63.95
2018-09-27T01:53:20.904Z,64.50
2018-09-27T01:55:49.379Z,64.70
2018-09-27T01:58:17.874Z,64.23
2018-09-27T02:00:46.387Z,64.71
2018-09-27T02:03:14.859Z,64.89
2018-09-27T02:05:43.328Z,64.88
2018-09-27T02:08:11.793Z,64.86
2018-09-27T02:10:40.301Z,64.41
2018-09-27T02:13:08.774Z,64.54
2018-09-27T02:15:37.238Z,64.83
2018-09-27T02:18:05.732Z,64.78
2018-09-27T02:20:34.194Z,65.13
2018-09-27T02:23:02.663Z,65.16
2018-09-27T02:25:31.139Z,65.16
2018-09-27T02:27:59.684Z,65.29
2018-09-27T02:30:28.227Z,64.84
2018-09-27T02:32:56.714Z,64.95
2018-09-27T02:35:25.206Z,65.30
2018-09-27T02:37:53.943Z,64.81
2018-09-27T02:40:22.434Z,65.52
2018-09-27T02:42:50.967Z,64.96
2018-09-27T02:45:19.506Z,65.36
2018-09-27T02:47:47.989Z,65.37
2018-09-27T02:50:16.470Z,65.26
2018-09-27T02:52:44.947Z,65.59
2018-09-27T02:55:13.409Z,65.82
2018-09-27T02:57:41.903Z,65.66
2018-09-27T03:00:10.367Z,65.49
2018-09-27T03:02:38.833Z,65.82
2018-09-27T03:05:07.622Z,65.85
2018-09-27T03:07:36.247Z,65.71
2018-09-27T03:10:04.894Z,65.81
2018-09-27T03:12:33.418Z,65.24
2018-09-27T03:15:01.891Z,65.75
2018-09-27T03:17:30.355Z,65.79
2018-09-27T03:19:58.836Z,65.53
2018-09-27T03:22:27.306Z,65.33
2018-09-27T03:24:55.773Z,65.78
2018-09-27T03:27:24.240Z,65.18
2018-09-27T03:29:52.710Z,65.64
2018-09-27T03:32:21.281Z,65.78
2018-09-27T03:34:49.854Z,65.92
2018-09-27T03:37:18.366Z,65.84
2018-09-27T03:39:46.919Z,65.27
2018-09-27T03:42:15.319Z,65.99
2018-09-27T03:44:43.790Z,65.85
2018-09-27T03:47:12.276Z,65.25
2018-09-27T03:49:40.755Z,65.72
2018-09-27T03:52:09.227Z,65.83
2018-09-27T03:54:37.736Z,65.82
2018-09-27T03:57:06.314Z,65.89
2018-09-27T03:59:34.789Z,65.52
2018-09-27T04:02:03.262Z,65.76
2018-09-27T04:04:31.744Z,65.54
2018-09-27T04:07:00.209Z,65.82
2018-09-27T04:09:28.670Z,65.86
2018-09-27T04:11:57.174Z,65.25
2018-09-27T04:14:25.642Z,65.58
2018-09-27T04:16:54.166Z,65.43
2018-09-27T04:19:22.640Z,65.99
2018-09-27T04:21:51.149Z,65.41
2018-09-27T04:24:19.627Z,65.70
2018-09-27T04:26:48.094Z,65.87
2018-09-27T04:29:16.560Z,65.78
2018-09-27T04:31:45.052Z,65.89
2018-09-27T04:34:13.533Z,65.34
2018-09-27T04:36:42.023Z,65.95
2018-09-27T04:39:12.039Z,65.89
2018-09-27T04:41:40.548Z,65.53
2018-09-27T04:44:09.745Z,65.59
2018-09-27T04:46:38.483Z,65.66
2018-09-27T04:49:07.201Z,65.85
2018-09-27T04:51:35.776Z,65.71
2018-09-27T04:54:04.308Z,65.98
2018-09-27T04:56:32.956Z,65.94
2018-09-27T04:59:01.538Z,65.93
2018-09-27T05:01:30.119Z,65.54
2018-09-27T05:03:58.776Z,65.80
2018-09-27T05:06:27.381Z,65.84
2018-09-27T05:08:55.975Z,66.02
2018-09-27T05:11:24.654Z,65.41
2018-09-27T05:13:53.272Z,65.55
2018-09-27T05:16:21.850Z,66.23
2018-09-27T05:18:50.499Z,66.10
2018-09-27T05:21:19.085Z,65.97
2018-09-27T05:23:47.669Z,66.03
2018-09-27T05:26:16.274Z,65.45
2018-09-27T05:28:44.874Z,65.54
2018-09-27T05:31:13.468Z,65.51
2018-09-27T05:33:42.112Z,65.56
2018-09-27T05:36:10.695Z,65.57
2018-09-27T05:38:39.294Z,65.48
2018-09-27T05:41:07.878Z,65.56
2018-09-27T05:43:36.458Z,65.99
2018-09-27T05:46:05.039Z,65.45
2018-09-27T05:48:33.623Z,65.96
2018-09-27T05:51:02.189Z,65.99
2018-09-27T05:53:30.758Z,65.81
2018-09-27T05:55:59.385Z,65.93
2018-09-27T05:58:27.946Z,65.99
2018-09-27T06:00:56.528Z,65.32
2018-09-27T06:03:25.135Z,66.01
2018-09-27T06:05:53.740Z,66.03
2018-09-27T06:08:22.322Z,65.59
2018-09-27T06:10:50.913Z,66.05
2018-09-27T06:13:19.490Z,65.27
2018-09-27T06:15:48.275Z,66.17
2018-09-27T06:18:16.850Z,65.62
2018-09-27T06:20:45.430Z,66.38
2018-09-27T06:23:14.043Z,65.92
2018-09-27T06:25:42.622Z,65.64
2018-09-27T06:28:11.200Z,66.03
2018-09-27T06:30:39.789Z,65.51
2018-09-27T06:33:08.361Z,65.56
2018-09-27T06:35:36.968Z,65.45
2018-09-27T06:38:05.557Z,65.88
2018-09-27T06:40:34.128Z,66.10
2018-09-27T06:43:02.736Z,65.47
2018-09-27T06:45:31.352Z,65.90
2018-09-27T06:47:59.912Z,65.19
2018-09-27T06:50:28.541Z,65.54
2018-09-27T06:52:57.149Z,65.82
2018-09-27T06:55:25.887Z,66.22
2018-09-27T06:57:54.326Z,65.75
2018-09-27T07:00:22.927Z,66.25
2018-09-27T07:02:51.531Z,66.07
2018-09-27T07:05:20.115Z,66.18
2018-09-27T07:07:48.721Z,66.11
2018-09-27T07:10:17.300Z,65.89
2018-09-27T07:12:45.883Z,65.70
2018-09-27T07:15:14.932Z,66.19
2018-09-27T07:17:43.599Z,66.39
2018-09-27T07:20:12.288Z,65.83
2018-09-27T07:22:40.865Z,66.17
2018-09-27T07:25:09.499Z,66.11
2018-09-27T07:27:38.095Z,66.15
2018-09-27T07:30:06.695Z,65.96
2018-09-27T07:32:35.270Z,66.35
2018-09-27T07:35:03.911Z,65.86
2018-09-27T07:37:32.543Z,65.91
2018-09-27T07:40:01.155Z,66.42
2018-09-27T07:42:29.730Z,65.83
2018-09-27T07:44:58.296Z,66.22
2018-09-27T07:47:26.874Z,66.40
2018-09-27T07:49:55.450Z,65.98
2018-09-27T07:52:24.026Z,66.21
2018-09-27T07:54:52.629Z,66.43
2018-09-27T07:57:21.323Z,66.01
2018-09-27T07:59:49.915Z,65.88
2018-09-27T08:02:18.486Z,65.97
2018-09-27T08:04:47.062Z,66.56
2018-09-27T08:07:15.644Z,66.56
2018-09-27T08:09:44.218Z,65.68
2018-09-27T08:12:12.827Z,65.98
2018-09-27T08:14:41.473Z,66.65
2018-09-27T08:17:10.095Z,66.45
2018-09-27T08:19:38.667Z,66.22
2018-09-27T08:22:07.484Z,66.23
2018-09-27T08:24:36.130Z,66.39
2018-09-27T08:27:05.028Z,66.74
2018-09-27T08:29:33.618Z,66.65
2018-09-27T08:32:02.244Z,66.58
2018-09-27T08:34:30.837Z,66.10
2018-09-27T08:36:59.424Z,66.14
2018-09-27T08:39:28.002Z,66.21
2018-09-27T08:41:56.610Z,66.40
2018-09-27T08:44:25.206Z,66.71
2018-09-27T08:46:53.798Z,66.76
2018-09-27T08:49:22.387Z,66.11
2018-09-27T08:51:50.953Z,66.17
2018-09-27T08:54:19.528Z,66.85
2018-09-27T08:56:48.153Z,66.24
2018-09-27T08:59:16.768Z,66.30
2018-09-27T09:01:45.365Z,66.65
2018-09-27T09:04:13.970Z,66.82
2018-09-27T09:06:42.555Z,66.54
2018-09-27T09:09:12.730Z,66.82
2018-09-27T09:11:41.385Z,66.19
2018-09-27T09:14:10.917Z,66.24
2018-09-27T09:16:39.530Z,66.75
2018-09-27T09:19:08.161Z,66.51
2018-09-27T09:21:36.810Z,66.41
2018-09-27T09:24:05.407Z,66.44
2018-09-27T09:26:34.827Z,67.12
2018-09-27T09:29:03.406Z,66.79
2018-09-27T09:31:31.999Z,66.35
2018-09-27T09:34:00.578Z,66.26
2018-09-27T09:36:29.208Z,66.31
2018-09-27T09:38:57.814Z,66.34
2018-09-27T09:41:26.395Z,66.86
2018-09-27T09:43:54.965Z,66.85
2018-09-27T09:46:23.605Z,66.97
2018-09-27T09:48:52.186Z,66.95
2018-09-27T09:51:20.787Z,66.67
2018-09-27T09:53:49.407Z,66.89
2018-09-27T09:56:17.988Z,66.46
2018-09-27T09:58:46.565Z,67.01
2018-09-27T10:01:15.142Z,66.89
2018-09-27T10:03:43.767Z,66.97
2018-09-27T10:06:12.341Z,66.66
2018-09-27T10:08:40.950Z,67.05
2018-09-27T10:11:09.550Z,66.99
2018-09-27T10:13:38.126Z,66.80
2018-09-27T10:16:06.693Z,67.10
2018-09-27T10:18:35.282Z,66.54
2018-09-27T10:21:03.885Z,66.87
2018-09-27T10:23:32.454Z,66.45
2018-09-27T10:26:01.039Z,67.08
2018-09-27T10:28:29.635Z,66.42
2018-09-27T10:30:58.247Z,66.97
2018-09-27T10:33:26.828Z,66.69
2018-09-27T10:35:55.377Z,67.26
2018-09-27T10:38:23.833Z,67.00
2018-09-27T10:40:52.472Z,66.37
2018-09-27T10:43:20.942Z,66.41
2018-09-27T10:45:49.439Z,66.52
2018-09-27T10:48:17.915Z,66.47
2018-09-27T10:50:46.405Z,66.55
2018-09-27T10:53:14.883Z,67.06
2018-09-27T10:55:43.371Z,67.05
2018-09-27T10:58:11.907Z,67.15
2018-09-27T11:00:40.392Z,67.22
2018-09-27T11:03:08.959Z,67.14
2018-09-27T11:05:37.453Z,66.67
2018-09-27T11:08:06.009Z,67.09
2018-09-27T11:10:34.485Z,67.20
2018-09-27T11:13:02.951Z,67.12
2018-09-27T11:15:31.439Z,67.12
2018-09-27T11:17:59.915Z,66.80
2018-09-27T11:20:28.424Z,66.71
2018-09-27T11:22:56.894Z,66.90
2018-09-27T11:25:25.345Z,66.94
2018-09-27T11:27:53.819Z,67.17
2018-09-27T11:30:27.495Z,67.24
2018-09-27T11:32:55.984Z,67.14
2018-09-27T11:35:24.441Z,67.16
2018-09-27T11:37:52.918Z,67.29
2018-09-27T11:40:21.403Z,66.80
2018-09-27T11:42:49.977Z,66.71
2018-09-27T11:45:18.471Z,66.69
2018-09-27T11:47:46.928Z,66.72
2018-09-27T11:50:15.490Z,67.26
2018-09-27T11:52:43.923Z,66.70
2018-09-27T11:55:12.863Z,67.03
2018-09-27T11:57:41.272Z,67.41
2018-09-27T12:00:10.013Z,67.34
2018-09-27T12:02:38.896Z,67.39
2018-09-27T12:05:07.374Z,67.51
2018-09-27T12:07:35.933Z,67.10
2018-09-27T12:10:04.351Z,66.95
2018-09-27T12:12:32.826Z,67.13
2018-09-27T12:15:01.327Z,67.16
2018-09-27T12:17:29.853Z,67.26
2018-09-27T12:19:58.362Z,67.00
2018-09-27T12:22:26.833Z,66.91
2018-09-27T12:24:55.306Z,67.07
2018-09-27T12:27:23.790Z,67.45
2018-09-27T12:29:52.255Z,67.25
2018-09-27T12:32:20.749Z,66.80
2018-09-27T12:34:49.225Z,67.55
2018-09-27T12:37:17.684Z,66.99
2018-09-27T12:39:46.324Z,67.28
2018-09-27T12:42:14.796Z,67.45
2018-09-27T12:44:43.148Z,66.86
2018-09-27T12:47:11.636Z,67.40
2018-09-27T12:49:40.151Z,67.10
2018-09-27T12:52:08.881Z,67.19
2018-09-27T12:54:37.127Z,67.01
2018-09-27T12:57:05.804Z,67.46
2018-09-27T12:59:34.260Z,67.43
2018-09-27T13:02:02.948Z,67.72
2018-09-27T13:04:31.239Z,67.17
2018-09-27T13:06:59.827Z,67.64
2018-09-27T13:09:28.374Z,67.56
2018-09-27T13:11:56.813Z,67.71
2018-09-27T13:14:25.344Z,67.71
2018-09-27T13:16:53.903Z,67.15
2018-09-27T13:19:22.411Z,67.13
2018-09-27T13:21:50.875Z,67.33
2018-09-27T13:24:19.350Z,67.42
2018-09-27T13:26:47.829Z,67.69
2018-09-27T13:29:16.328Z,67.64
2018-09-27T13:31:44.827Z,67.87
2018-09-27T13:34:13.298Z,67.42
2018-09-27T13:36:41.787Z,67.12
2018-09-27T13:39:10.922Z,67.82
2018-09-27T13:41:40.195Z,67.81
2018-09-27T13:44:08.859Z,67.46
2018-09-27T13:46:37.760Z,67.48
2018-09-27T13:49:06.367Z,67.64
2018-09-27T13:51:34.831Z,67.36
2018-09-27T13:54:03.299Z,67.85
2018-09-27T13:56:31.784Z,67.32
2018-09-27T13:59:00.265Z,68.01
2018-09-27T14:01:28.769Z,67.81
2018-09-27T14:03:57.304Z,67.52
2018-09-27T14:06:25.779Z,67.41
2018-09-27T14:08:54.262Z,67.85
2018-09-27T14:11:22.771Z,67.36
2018-09-27T14:13:51.241Z,67.73
2018-09-27T14:16:19.720Z,67.45
2018-09-27T14:18:48.203Z,67.45
2018-09-27T14:21:16.683Z,67.42
2018-09-27T14:23:45.165Z,67.79
2018-09-27T14:26:13.715Z,67.84
2018-09-27T14:28:42.215Z,67.38
2018-09-27T14:31:10.706Z,67.89
2018-09-27T14:33:39.184Z,67.47
2018-09-27T14:36:07.662Z,68.03
2018-09-27T14:38:36.168Z,67.82
2018-09-27T14:41:04.743Z,67.92
2018-09-27T14:43:33.171Z,67.47
2018-09-27T14:46:01.634Z,67.52
2018-09-27T14:48:30.106Z,67.87
2018-09-27T14:50:58.592Z,68.00
2018-09-27T14:53:27.063Z,67.91
2018-09-27T14:55:55.528Z,67.62
2018-09-27T14:58:24.010Z,68.22
2018-09-27T15:00:52.482Z,67.26
2018-09-27T15:03:21.006Z,68.09
2018-09-27T15:05:49.466Z,68.18
2018-09-27T15:08:17.943Z,67.50
2018-09-27T15:10:46.443Z,67.71
2018-09-27T15:13:14.910Z,67.55
2018-09-27T15:15:43.389Z,67.86
2018-09-27T15:18:11.882Z,67.86
2018-09-27T15:20:40.355Z,67.80
2018-09-27T15:23:08.854Z,67.76
2018-09-27T15:25:37.327Z,68.18
2018-09-27T15:28:05.810Z,67.39
2018-09-27T15:30:34.332Z,67.91
2018-09-27T15:33:02.787Z,67.60
2018-09-27T15:35:31.263Z,67.74
2018-09-27T15:37:59.737Z,67.58
2018-09-27T15:40:28.193Z,68.24
2018-09-27T15:42:56.658Z,68.22
2018-09-27T15:45:25.147Z,67.72
2018-09-27T15:47:53.766Z,67.96
2018-09-27T15:50:22.244Z,68.06
2018-09-27T15:52:50.795Z,68.43
2018-09-27T15:55:19.276Z,67.82
2018-09-27T15:57:47.747Z,67.74
2018-09-27T16:00:16.247Z,67.85
2018-09-27T16:02:44.713Z,68.29
2018-09-27T16:05:13.187Z,67.55
2018-09-27T16:07:41.690Z,68.50
2018-09-27T16:10:10.191Z,68.36
2018-09-27T16:12:38.685Z,67.93
2018-09-27T16:15:07.165Z,68.36
2018-09-27T16:17:35.666Z,67.92
2018-09-27T16:20:04.161Z,68.87
2018-09-27T16:22:32.623Z,68.54
2018-09-27T16:25:01.089Z,68.49
2018-09-27T16:27:29.562Z,68.19
2018-09-27T16:29:58.708Z,68.42
2018-09-27T16:32:27.186Z,68.53
2018-09-27T16:34:55.695Z,68.42
2018-09-27T16:37:24.155Z,68.00
2018-09-27T16:39:52.627Z,68.35
2018-09-27T16:42:21.085Z,68.29
2018-09-27T16:44:49.552Z,68.16
2018-09-27T16:47:18.051Z,68.11
2018-09-27T16:49:46.587Z,68.49
2018-09-27T16:52:15.060Z,67.90
2018-09-27T16:54:43.529Z,68.25
2018-09-27T16:57:12.004Z,68.30
2018-09-27T16:59:40.498Z,67.86
2018-09-27T17:02:08.992Z,68.21
2018-09-27T17:04:37.549Z,68.27
2018-09-27T17:07:06.032Z,68.41
2018-09-27T17:09:34.521Z,67.86
2018-09-27T17:12:02.999Z,67.64
2018-09-27T17:14:31.470Z,68.13
2018-09-27T17:16:59.948Z,67.86
2018-09-27T17:19:28.418Z,68.21
2018-09-27T17:21:56.900Z,67.46
2018-09-27T17:24:25.396Z,68.23
2018-09-27T17:26:54.045Z,68.16
2018-09-27T17:29:22.515Z,67.59
2018-09-27T17:31:50.969Z,68.17
2018-09-27T17:34:19.451Z,67.78
2018-09-27T17:36:54.889Z,67.77
2018-09-27T17:39:23.363Z,68.20
2018-09-27T17:41:51.842Z,68.34
2018-09-27T17:44:20.359Z,68.17
2018-09-27T17:46:49.006Z,67.64
2018-09-27T17:49:17.496Z,68.10
2018-09-27T17:51:45.979Z,67.52
2018-09-27T17:54:14.453Z,68.17
2018-09-27T17:56:42.932Z,67.57
2018-09-27T17:59:11.395Z,67.53
2018-09-27T18:01:39.962Z,67.68
2018-09-27T18:04:08.435Z,67.60
2018-09-27T18:06:36.952Z,67.98
2018-09-27T18:09:09.751Z,67.94
2018-09-27T18:11:38.562Z,68.24
2018-09-27T18:14:07.055Z,67.62
2018-09-27T18:16:35.554Z,68.28
2018-09-27T18:19:04.058Z,67.88
2018-09-27T18:21:32.587Z,67.73
2018-09-27T18:24:01.038Z,67.74
2018-09-27T18:26:29.630Z,68.05
2018-09-27T18:28:58.093Z,67.91
2018-09-27T18:31:26.600Z,68.59
2018-09-27T18:33:55.128Z,67.97
2018-09-27T18:36:23.599Z,68.40
2018-09-27T18:38:52.069Z,68.46
2018-09-27T18:41:20.546Z,68.26
2018-09-27T18:43:49.041Z,68.64
2018-09-27T18:46:17.567Z,68.10
2018-09-27T18:48:46.068Z,68.14
2018-09-27T18:51:14.538Z,68.55
2018-09-27T18:53:43.046Z,68.55
2018-09-27T18:56:11.551Z,68.57
2018-09-27T18:58:40.052Z,68.26
2018-09-27T19:01:08.541Z,68.85
2018-09-27T19:03:37.008Z,68.69
2018-09-27T19:06:05.484Z,69.08
2018-09-27T19:08:33.984Z,68.34
2018-09-27T19:11:02.516Z,68.43
2018-09-27T19:13:30.987Z,68.75
2018-09-27T19:15:59.463Z,68.55
2018-09-27T19:18:27.935Z,68.78
2018-09-27T19:20:56.409Z,68.93
2018-09-27T19:23:24.909Z,68.81
2018-09-27T19:25:53.387Z,68.30
2018-09-27T19:28:21.866Z,68.93
2018-09-27T19:30:50.350Z,68.53
2018-09-27T19:33:18.835Z,68.94
2018-09-27T19:35:47.331Z,68.97
2018-09-27T19:38:15.813Z,68.70
2018-09-27T19:40:44.307Z,68.94
2018-09-27T19:43:12.808Z,68.96
2018-09-27T19:45:41.261Z,69.07
2018-09-27T19:48:09.736Z,68.98
2018-09-27T19:50:38.234Z,68.53
2018-09-27T19:53:06.991Z,69.09
2018-09-27T19:55:35.454Z,69.01
2018-09-27T19:58:03.997Z,69.19
2018-09-27T20:00:32.435Z,68.62
2018-09-27T20:03:00.909Z,69.15
2018-09-27T20:05:29.578Z,68.66
2018-09-27T20:07:58.058Z,68.73
2018-09-27T20:10:26.577Z,69.19
2018-09-27T20:12:55.029Z,69.10
2018-09-27T20:15:23.646Z,69.28
2018-09-27T20:17:52.118Z,68.76
2018-09-27T20:20:20.595Z,69.22
2018-09-27T20:22:49.177Z,69.00
2018-09-27T20:25:17.609Z,69.27
2018-09-27T20:27:46.082Z,69.26
2018-09-27T20:30:14.574Z,68.69
2018-09-27T20:32:43.059Z,68.84
2018-09-27T20:35:11.539Z,69.33
2018-09-27T20:37:40.058Z,69.29
2018-09-27T20:40:08.559Z,68.87
2018-09-27T20:42:37.013Z,68.93
2018-09-27T20:45:06.346Z,68.92
2018-09-27T20:47:34.860Z,69.47
2018-09-27T20:50:03.339Z,68.82
2018-09-27T20:52:31.820Z,69.53
2018-09-27T20:55:00.306Z,69.02
2018-09-27T20:57:28.773Z,69.43
2018-09-27T20:59:57.242Z,68.98
2018-09-27T21:02:25.745Z,69.62
2018-09-27T21:04:54.252Z,69.01
2018-09-27T21:07:22.739Z,69.50
2018-09-27T21:09:51.214Z,69.15
2018-09-27T21:12:19.693Z,69.02
2018-09-27T21:14:48.171Z,69.16
2018-09-27T21:17:16.643Z,69.03
2018-09-27T21:19:45.101Z,69.42
2018-09-27T21:22:13.595Z,69.06
2018-09-27T21:24:42.070Z,69.71
2018-09-27T21:27:10.565Z,69.02
2018-09-27T21:29:39.044Z,69.31
2018-09-27T21:32:07.564Z,69.66
2018-09-27T21:34:36.043Z,69.72
2018-09-27T21:37:04.540Z,69.70
2018-09-27T21:39:33.010Z,69.31
2018-09-27T21:42:01.475Z,69.12
2018-09-27T21:44:29.951Z,69.67
2018-09-27T21:46:58.432Z,69.47
2018-09-27T21:49:26.912Z,69.72
2018-09-27T21:51:55.379Z,69.51
2018-09-27T21:54:23.867Z,69.14
2018-09-27T21:56:52.506Z,69.72
2018-09-27T21:59:20.983Z,69.82
2018-09-27T22:01:49.438Z,69.86
2018-09-27T22:04:17.994Z,69.22
2018-09-27T22:06:48.414Z,69.32
2018-09-27T22:09:16.986Z,69.25
2018-09-27T22:11:45.485Z,69.28
2018-09-27T22:14:13.966Z,69.32
2018-09-27T22:16:42.483Z,69.35
2018-09-27T22:19:10.987Z,69.49
2018-09-27T22:21:39.458Z,69.57
2018-09-27T22:24:07.928Z,69.83
2018-09-27T22:26:36.411Z,69.37
2018-09-27T22:29:04.886Z,69.30
2018-09-27T22:31:33.419Z,69.84
2018-09-27T22:34:01.862Z,69.29
2018-09-27T22:36:30.358Z,69.90
2018-09-27T22:38:58.832Z,70.10
2018-09-27T22:41:27.310Z,69.47
2018-09-27T22:43:55.778Z,70.05
2018-09-27T22:46:24.261Z,69.87
2018-09-27T22:48:52.733Z,69.95
2018-09-27T22:51:21.211Z,70.18
2018-09-27T22:53:49.716Z,69.73
2018-09-27T22:56:18.173Z,69.98
2018-09-27T22:58:46.671Z,69.54
2018-09-27T23:01:15.167Z,69.75
2018-09-27T23:03:43.651Z,69.97
2018-09-27T23:06:12.123Z,70.26
2018-09-27T23:08:40.607Z,69.59
2018-09-27T23:11:09.206Z,70.14
2018-09-27T23:13:37.678Z,69.78
2018-09-27T23:16:06.185Z,70.06
2018-09-27T23:18:34.676Z,70.00
2018-09-27T23:21:03.198Z,70.11
2018-09-27T23:23:31.739Z,70.06
2018-09-27T23:26:00.330Z,70.31
2018-09-27T23:28:28.776Z,69.68
2018-09-27T23:30:57.230Z,69.85
2018-09-27T23:33:25.708Z,70.06
2018-09-27T23:35:54.215Z,70.07
2018-09-27T23:38:22.687Z,69.31
2018-09-27T23:40:51.167Z,70.09
2018-09-27T23:43:19.639Z,70.10
2018-09-27T23:45:48.140Z,70.17
2018-09-27T23:48:16.648Z,69.75
2018-09-27T23:50:45.135Z,69.54
2018-09-27T23:53:13.611Z,70.10
2018-09-27T23:55:42.095Z,69.87
2018-09-27T23:58:10.603Z,69.52
